< < Back
Terminal Aerodrome Forecast


Current Version              Previous Versions:   1  2  3  4  5  6  7  8  9  

Terminal Aerodrome Forecast

614
FTUS42 KFFC 270535
TAFMCN
TAF
KMCN 270535Z 2706/2806 16005KT P6SM SCT060
     FM271500 14008KT P6SM BKN050
     FM272300 13007KT P6SM FEW050 SCT250=



Latest METAR

783
SAUS80 KWBC 271000 RRB
MTRMCN
METAR KMCN 270953Z AUTO 10SM FEW095 18/16 A3009 RMK AO2 SLP184 T01830156
TSNO


USA.gov is the U.S. government's official web portal to all federal, state and local government web resources and services.